Tiempo atmosférico en la estación meteorológica de Monterrubio De La Demanda, Burgos (1190 m.)



Fecha
DESCASC
Temp. máxima en grados centígrados (hora)
DESCASC
Temp. mínima en grados centígrados (hora)
DESCASC
Temp. media en grados centígrados
DESCASC
Racha de viento máxima en m/sg (hora)
DESCASC
Velocidad máxima media en intervalos de 10 minutos(hora)
DESCASC
Precipitaciones diarias en mm
DESCASC
Precipitaciones de 00:00 a 06:00 en mm
DESCASC
Precipitaciones de 06:00 a 12:00 en mm
DESCASC
Precipitaciones de 12:00 a 18:00 en mm
DESCASC
Precipitaciones de 18:00 a 24:00 en mm
DESCASC
23-06-2019 26.3 (18:20) 9.3 (07:10) 17.8 12.5 (13:30) 6.39 (13:50) 0 0 0 0 0
22-06-2019 25.1 (18:10) 3.2 (07:10) 14.2 10.28 (13:40) 6.11 (13:40) 0 0 0 0 0
21-06-2019 16.7 (15:10) 8.5 (06:30) 12.6 9.17 (16:20) 6.39 (15:40) 7 7 0 0 0
20-06-2019 19.9 (13:50) 11 (00:00) 15.4 12.22 (16:50) 9.17 (16:30) 7.4 0 0 1.4 6
19-06-2019 -- (--) -- (--) -- -- (--) -- (--) -- -- -- -- 0
18-06-2019 -- (--) -- (--) -- -- (--) -- (--) -- 0 0 -- --
17-06-2019 26.5 (17:50) 6 (00:00) 16.3 10.83 (14:20) 6.11 (16:10) 0 0 0 0 0
16-06-2019 24.4 (19:20) 4.9 (00:00) 14.6 8.61 (01:30) 6.94 (01:30) 0 0 0 0 0
15-06-2019 19.1 (18:50) 7.2 (00:00) 13.2 9.17 (14:10) 5 (21:10) 0 0 0 0 0
14-06-2019 21.3 (16:00) 7 (00:00) 14.1 11.94 (14:20) 7.78 (15:40) 0 0 0 0 0
13-06-2019 22 (18:40) 3.7 (00:00) 12.9 13.89 (14:50) 7.78 (23:59) 0 0 0 0 0
12-06-2019 16.7 (19:00) -1.3 (-00:0) 7.7 10.28 (16:00) 6.11 (12:20) 0 0 0 0 0
11-06-2019 11.1 (16:40) 3.7 (00:00) 7.4 10.83 (17:00) 6.39 (00:10) 2.6 2.4 0 0 0.2
10-06-2019 15.4 (16:10) 6.5 (00:00) 10.9 12.5 (00:40) 7.5 (23:30) 0 0 0 0 0
09-06-2019 20 (17:50) 6 (00:00) 13 13.89 (20:10) 9.17 (19:40) 0 0 0 0 0
08-06-2019 20.4 (17:30) 1.1 (00:00) 10.7 13.33 (16:10) 6.94 (23:50) 0 0 0 0 0
07-06-2019 14.2 (00:00) 3.8 (00:00) 9 15 (07:50) 10.28 (06:20) 4.6 4.6 0 0 0
06-06-2019 18.4 (16:10) 4.1 (00:00) 11.2 16.94 (17:40) 10.28 (19:00) 0.2 0 0 0.2 0
05-06-2019 11.5 (18:40) 5.9 (00:00) 8.7 10.28 (15:30) 7.22 (00:50) 3 0 1 1.8 0.2
04-06-2019 22 (16:20) 6.2 (00:00) 14.1 12.78 (15:10) 8.06 (15:40) 0 0 0 0 0
03-06-2019 25.7 (17:40) 8.6 (00:00) 17.2 11.94 (17:30) 7.22 (15:30) 0 0 0 0 0
02-06-2019 26.5 (16:30) 8.4 (00:00) 17.4 11.39 (17:10) 7.22 (15:50) 0 0 0 0 0
01-06-2019 27.9 (16:40) 7.1 (00:00) 17.5 7.78 (17:40) 5.56 (19:30) 0 0 0 0 0
31-05-2019 26.2 (17:10) 7.1 (00:00) 16.7 7.78 (17:20) 4.72 (17:20) 0 0 0 0 0
30-05-2019 22.3 (16:40) 6.1 (00:00) 14.2 8.89 (00:20) 6.67 (09:50) 0 0 0 0 0
29-05-2019 14.5 (17:00) 5.8 (00:00) 10.2 12.5 (09:10) 7.78 (16:00) 0 0 0 0 0
28-05-2019 12.1 (15:10) 3.7 (00:00) 7.9 13.89 (10:00) 7.5 (10:10) 0 0 0 0 0
27-05-2019 16.6 (14:10) 5.9 (00:00) 11.3 11.11 (14:30) 6.67 (14:30) 0 0 0 0 0

Gráficas

Temp. máximas Temp. mínimas Temp. medias Precipitaciones Rachas de viento máximas Velocidades máximas media en intervalos de 10 minutos

Datos horarios

Fecha y hora oficial Temperatura (ºC) Velocidad del viento (km/h) Dirección del viento Racha (km/h) Dirección de racha Precipitación (mm) Presión (hPa) Tendencia (hPa) Humedad (%)
2019-06-25 23:00:00 19.3 0 Calma 9 Norte 0 -- -- 52
2019-06-25 22:00:00 22.3 4 Oeste 8 Sudeste 0 -- -- 47
2019-06-25 21:00:00 24.7 3 Nordeste 9 Este 0 -- -- 40
2019-06-25 20:00:00 26.3 3 Noroeste 15 Oeste 0 -- -- 35
2019-06-25 19:00:00 27.7 14 Oeste 32 Oeste 0 -- -- 34
2019-06-25 18:00:00 28.9 12 Oeste 37 Oeste 0 -- -- 31
2019-06-25 17:00:00 28.8 23 Sudoeste 39 Oeste 0 -- -- 31
2019-06-25 16:00:00 28.7 10 Sur 31 Oeste 0 -- -- 36
2019-06-25 15:00:00 26.4 17 Sudoeste 37 Oeste 0 -- -- 40
2019-06-25 14:00:00 25.1 23 Oeste 36 Sudoeste 0 -- -- 42
2019-06-25 13:00:00 24.1 8 Sudoeste 20 Sur 0 -- -- 47
2019-06-25 12:00:00 22 4 Noroeste 8 Sudeste 0 -- -- 55
2019-06-25 11:00:00 20 8 Sudeste 15 Sudeste 0 -- -- 69
2019-06-25 10:00:00 17.8 4 Sudeste 7 Sudeste 0 -- -- 77
2019-06-25 09:00:00 16.2 2 Sudeste 8 Norte 0 -- -- 81
2019-06-25 08:00:00 13.6 4 Este 8 Este 0 -- -- 89
2019-06-25 07:00:00 11.7 2 Sudeste 8 Este 0 -- -- 91
2019-06-25 06:00:00 12.3 2 Sudeste 22 Sudeste 0 -- -- 90
2019-06-25 05:00:00 13 18 Sudeste 26 Sudeste 0 -- -- 90
2019-06-25 04:00:00 13.3 21 Sudeste 28 Sudeste 0 -- -- 93
2019-06-25 03:00:00 13.4 12 Este 19 Sudeste 0 -- -- 94
2019-06-25 02:00:00 13.7 10 Este 15 Este 0 -- -- 92
2019-06-25 01:00:00 13.8 6 Este 11 Este 0 -- -- 81
2019-06-25 00:00:00 14.8 2 Este 11 Oeste 0 -- -- 77
2019-06-24 23:00:00 16.1 5 Noroeste 18 Oeste 0 -- -- 72
2019-06-24 22:00:00 18.3 15 Oeste 41 Oeste 0 -- -- 65
2019-06-24 21:00:00 22.3 4 Sur 15 Sudeste 0 -- -- 46
2019-06-24 20:00:00 23.6 5 Sur 22 Sudeste 0 -- -- 48
2019-06-24 19:00:00 24.4 13 Sudeste 22 Sudeste 0 -- -- 42
2019-06-24 18:00:00 25.5 16 Sudoeste 27 Sur 0 -- -- 40
2019-06-24 17:00:00 23.7 3 Sudoeste 16 Oeste 0 -- -- 47
2019-06-24 16:00:00 23.1 14 Oeste 27 Oeste 0 -- -- 45
2019-06-24 15:00:00 23.3 13 Oeste 25 Oeste 0 -- -- 45
2019-06-24 14:00:00 23.2 16 Oeste 27 Oeste 0 -- -- 41
2019-06-24 13:00:00 23.2 10 Sudoeste 17 Sudoeste 0 -- -- 42
2019-06-24 12:00:00 23.3 8 Sudoeste 13 Oeste 0 -- -- 42
2019-06-24 11:00:00 21.9 3 Sudeste 10 Sudeste 0 -- -- 44
2019-06-24 10:00:00 20 3 Oeste 25 Sudeste 0 -- -- 61
2019-06-24 09:00:00 19.2 9 Sudeste 15 Este 0 -- -- 57
2019-06-24 08:00:00 15.4 5 Norte 18 Este 0 -- -- 68
2019-06-24 07:00:00 13.8 5 Este 14 Nordeste 0 -- -- 73
2019-06-24 06:00:00 13.2 4 Este 9 Sudoeste 0 -- -- 77
2019-06-24 05:00:00 14.6 5 Sudoeste 14 Norte 0 -- -- 70
2019-06-24 04:00:00 14 6 Noroeste 12 Oeste 0 -- -- 74
2019-06-24 03:00:00 15 0 Calma 5 Sudeste 0 -- -- 70
2019-06-24 02:00:00 16.2 4 Sudeste 12 Sudeste 0 -- -- 63
2019-06-24 01:00:00 16.2 0 Calma 4 Sudeste 0 -- -- 65
2019-06-24 00:00:00 17.2 0 Calma 5 Norte 0 -- -- 56
2019-06-23 23:00:00 18.5 3 Este 10 Norte 0 -- -- 53
2019-06-23 22:00:00 20.4 5 Sudeste 11 Oeste 0 -- -- 50
2019-06-23 21:00:00 23.2 0 Calma 13 Sudoeste 0 -- -- 39
2019-06-23 20:00:00 24.9 6 Oeste 20 Oeste 0 -- -- 39
2019-06-23 19:00:00 25.4 16 Oeste 31 Oeste 0 -- -- 35
2019-06-23 18:00:00 25.8 11 Oeste 26 Noroeste 0 -- -- 37
2019-06-23 17:00:00 25.4 13 Oeste 30 Oeste 0 -- -- 39
2019-06-23 16:00:00 25.9 15 Noroeste 30 Noroeste 0 -- -- 37
2019-06-23 15:00:00 24.5 11 Oeste 40 Oeste 0 -- -- 36
2019-06-23 14:00:00 23.6 21 Oeste 45 Oeste 0 -- -- 39
2019-06-23 13:00:00 23.8 20 Sudoeste 32 Oeste 0 -- -- 38
2019-06-23 12:00:00 22.1 4 Nordeste 14 Noroeste 0 -- -- 42
2019-06-23 11:00:00 20.3 7 Noroeste 12 Noroeste 0 -- -- 51
2019-06-23 10:00:00 18.2 4 Noroeste 9 Oeste 0 -- -- 62
2019-06-23 09:00:00 11.7 0 Calma 8 Oeste 0 -- -- 78
2019-06-23 08:00:00 9.7 2 Sudeste 6 Noroeste 0 -- -- 89
2019-06-23 07:00:00 9.4 0 Calma 3 Noroeste 0 -- -- 85
2019-06-23 06:00:00 9.5 0 Calma 2 Norte 0 -- -- 86
2019-06-23 05:00:00 10 0 Calma 2 Oeste 0 -- -- 82
2019-06-23 04:00:00 10.7 0 Calma 2 Oeste 0 -- -- 81
2019-06-23 03:00:00 11.8 2 Oeste 4 Oeste 0 -- -- 79
2019-06-23 02:00:00 12.4 5 Noroeste 9 Oeste 0 -- -- 79
2019-06-23 01:00:00 14.2 4 Noroeste 9 Oeste 0 -- -- 72
2019-06-23 00:00:00 15.8 2 Norte 8 Oeste 0 -- -- 65
2019-06-22 23:00:00 19 2 Norte 8 Este 0 -- -- 51
2019-06-22 22:00:00 21 3 Este 13 Sudoeste 0 -- -- 47
2019-06-22 21:00:00 24 7 Sudoeste 16 Sudoeste 0 -- -- 40
2019-06-22 20:00:00 24.8 7 Sudoeste 23 Sudoeste 0 -- -- 35
2019-06-22 19:00:00 24.6 14 Oeste 36 Oeste 0 -- -- 35
2019-06-22 18:00:00 24.8 12 Oeste 27 Oeste 0 -- -- 38
2019-06-22 17:00:00 24.2 13 Oeste 28 Oeste 0 -- -- 35
2019-06-22 16:00:00 23.7 19 Oeste 30 Oeste 0 -- -- 33
2019-06-22 15:00:00 22.9 15 Oeste 30 Oeste 0 -- -- 38
2019-06-22 14:00:00 22.1 15 Oeste 37 Oeste 0 -- -- 43
2019-06-22 13:00:00 21.2 14 Oeste 31 Oeste 0 -- -- 48
2019-06-22 12:00:00 20.2 18 Oeste 30 Oeste 0 -- -- 49
2019-06-22 11:00:00 17.1 5 Noroeste 10 Noroeste 0 -- -- 66
2019-06-22 10:00:00 11.6 0 Calma 4 Sudoeste 0 -- -- 91
2019-06-22 09:00:00 8.9 4 Sudeste 6 Sudeste 0 -- -- 93
2019-06-22 08:00:00 5.6 2 Noroeste 4 Oeste 0 -- -- 99
2019-06-22 07:00:00 3.4 0 Calma 5 Oeste 0 -- -- 98
2019-06-22 06:00:00 5 2 Este 5 Este 0 -- -- 97
2019-06-22 05:00:00 4.9 0 Calma 6 Este 0 -- -- 96
2019-06-22 04:00:00 5.6 0 Calma 12 Este 0 -- -- 96
2019-06-22 03:00:00 7.5 3 Este 20 Este 0 -- -- 97
2019-06-22 02:00:00 8 14 Este 18 Este 0 -- -- 96
2019-06-22 01:00:00 8.9 9 Este 21 Este 0 -- -- 94
2019-06-22 00:00:00 9.6 15 Este 22 Este 0 -- -- 92
2019-06-21 23:00:00 10.3 13 Este 20 Este 0 -- -- 86
2019-06-21 22:00:00 11.3 14 Este 19 Este 0 -- -- 84
2019-06-21 21:00:00 13.2 12 Este 27 Este 0 -- -- 76
2019-06-21 20:00:00 14.7 20 Este 28 Este 0 -- -- 73
2019-06-21 19:00:00 15.7 14 Este 27 Este 0 -- -- 69
2019-06-21 18:00:00 16.4 20 Sudeste 30 Sudeste 0 -- -- 69
2019-06-21 17:00:00 16.1 23 Sudeste 33 Sudeste 0 -- -- 69
2019-06-21 16:00:00 15.7 21 Sudeste 31 Sudeste 0 -- -- 71
2019-06-21 15:00:00 16.5 20 Sudeste 30 Este 0 -- -- 72
2019-06-21 14:00:00 15.7 17 Sudeste 29 Este 0 -- -- 72
2019-06-21 13:00:00 14.2 14 Sudeste 29 Sudeste 0 -- -- 78
2019-06-21 12:00:00 13.1 15 Este 23 Este 0 -- -- 85
2019-06-21 11:00:00 12.1 16 Este 24 Sudeste 0 -- -- 85
2019-06-21 10:00:00 11 16 Este 27 Este 0 -- -- 90
2019-06-21 09:00:00 10.5 14 Este 23 Sudeste 0 -- -- 95
2019-06-21 08:00:00 9.7 14 Este 23 Este 0 -- -- 97
2019-06-21 07:00:00 9 9 Este 26 Este 0 -- -- 97
2019-06-21 06:00:00 8.9 10 Sudeste 31 Este 0 -- -- 97
2019-06-21 05:00:00 9.7 13 Este 21 Sudeste 0 -- -- 95
2019-06-21 04:00:00 10.2 7 Este 19 Este 0 -- -- 98
2019-06-21 03:00:00 10.5 7 Este 16 Este 0.2 -- -- 98
2019-06-21 02:00:00 10.4 8 Sudeste 24 Sudeste 4 -- -- 97
2019-06-21 01:00:00 10.7 4 Este 23 Este 2.8 -- -- 95
2019-06-21 00:00:00 11 19 Este 32 Este 0.2 -- -- 93
2019-06-20 23:00:00 11.2 11 Este 26 Este 1.2 -- -- 97
2019-06-20 22:00:00 11.3 20 Este 33 Este 0.4 -- -- 97
2019-06-20 21:00:00 11.5 23 Este 36 Este 1 -- -- 97
2019-06-20 20:00:00 12.1 17 Este 31 Este 0 -- -- 95
2019-06-20 19:00:00 12.6 25 Este 39 Nordeste 3.2 -- -- 88
2019-06-20 18:00:00 13.1 20 Este 40 Sudeste 1.4 -- -- 92
2019-06-20 17:00:00 15.5 32 Este 44 Sudeste 0 -- -- 76
2019-06-20 16:00:00 17.8 30 Sudeste 37 Este 0 -- -- 68
2019-06-20 15:00:00 18.3 10 Este 22 Sudeste 0 -- -- 64
2019-06-20 14:00:00 19.7 8 Nordeste 22 Sudeste 0 -- -- 59
2019-06-20 13:00:00 18.1 8 Sudeste 22 Este 0 -- -- 57
2019-06-20 12:00:00 16.3 19 Sudeste 27 Sudeste 0 -- -- 74
2019-06-20 11:00:00 15.5 21 Sudeste 32 Sudeste 0 -- -- 78
2019-06-20 10:00:00 14.1 23 Sudeste 32 Sudeste 0 -- -- 84
2019-06-20 09:00:00 12.7 22 Este 32 Este 0 -- -- 88
2019-06-20 08:00:00 12 22 Sudeste 27 Sudeste 0 -- -- 94
2019-06-20 07:00:00 11.7 18 Sudeste 25 Este 0 -- -- 95
2019-06-20 06:00:00 11.8 12 Este 23 Este 0 -- -- 94
2019-06-20 05:00:00 11.9 14 Este 22 Este 0 -- -- 96
2019-06-20 04:00:00 11.7 10 Este 23 Este 0 -- -- 97
2019-06-20 03:00:00 11.7 14 Este 22 Este 0 -- -- 95
2019-06-20 02:00:00 11.8 2 Este 9 Este 0 -- -- 81
2019-06-20 01:00:00 13.1 4 Este 7 Sudeste 0 -- -- 74
2019-06-20 00:00:00 14.9 0 Calma 8 Noroeste 0 -- -- 69
2019-06-19 23:00:00 15.9 0 Calma 12 Norte 0 -- -- 64
2019-06-19 22:00:00 17.4 6 Noroeste 13 Norte 0 -- -- 56
2019-06-19 21:00:00 19.4 7 Noroeste 26 Noroeste 0 -- -- 51
2019-06-19 20:00:00 20.2 13 Oeste 26 Noroeste 0 -- -- 51
2019-06-19 19:00:00 20.3 18 Noroeste 30 Noroeste 0 -- -- 49
2019-06-19 18:00:00 20.4 13 Noroeste 31 Oeste 0 -- -- 48
2019-06-19 17:00:00 20.3 14 Oeste 28 Sudoeste 0 -- -- 51
2019-06-19 16:00:00 19.4 14 Oeste -- -- -- -- -- 53
2019-06-19 15:00:00 -- -- -- -- -- -- -- -- --
2019-06-19 14:00:00 -- -- -- -- -- -- -- -- --
2019-06-19 13:00:00 -- -- -- -- -- -- -- -- --
2019-06-19 12:00:00 -- -- -- -- -- -- -- -- --
2019-06-19 11:00:00 -- -- -- -- -- -- -- -- --
2019-06-19 10:00:00 -- -- -- -- -- -- -- -- --
2019-06-19 09:00:00 -- -- -- -- -- -- -- -- --
2019-06-19 08:00:00 -- -- -- -- -- -- -- -- --
2019-06-19 07:00:00 -- -- -- -- -- -- -- -- --
2019-06-19 06:00:00 -- -- -- -- -- -- -- -- --
2019-06-19 05:00:00 -- -- -- -- -- -- -- -- --
2019-06-19 04:00:00 -- -- -- -- -- -- -- -- --
2019-06-19 03:00:00 -- -- -- -- -- -- -- -- --
2019-06-19 02:00:00 -- -- -- -- -- -- -- -- --
2019-06-19 01:00:00 -- -- -- -- -- -- -- -- --
2019-06-19 00:00:00 -- -- -- -- -- -- -- -- --
2019-06-18 23:00:00 -- -- -- -- -- -- -- -- --
2019-06-18 22:00:00 -- -- -- -- -- -- -- -- --
2019-06-18 21:00:00 -- -- -- -- -- -- -- -- --
2019-06-18 20:00:00 -- -- -- -- -- -- -- -- --
2019-06-18 19:00:00 -- -- -- -- -- -- -- -- --
2019-06-18 18:00:00 -- -- -- -- -- -- -- -- --
2019-06-18 17:00:00 -- -- -- -- -- -- -- -- --
2019-06-18 16:00:00 25.5 24 Oeste 53 Sur 0 -- -- 20
2019-06-18 15:00:00 25.2 23 Sudoeste 50 Sudoeste 0 -- -- 22
2019-06-18 14:00:00 25.2 23 Sudoeste 45 Oeste 0 -- -- 23
2019-06-18 13:00:00 23.9 24 Sudoeste 44 Sudoeste 0 -- -- 22
2019-06-18 12:00:00 22.4 27 Oeste 41 Oeste 0 -- -- 29
2019-06-18 11:00:00 21.2 23 Oeste 39 Oeste 0 -- -- 31
2019-06-18 10:00:00 20.3 19 Oeste 39 Oeste 0 -- -- 34
2019-06-18 09:00:00 16.1 0 Calma 10 Sudeste 0 -- -- 54
2019-06-18 08:00:00 11.5 5 Oeste 8 Oeste 0 -- -- 62
2019-06-18 07:00:00 10.5 2 Noroeste 6 Oeste 0 -- -- 62
2019-06-18 06:00:00 11.4 3 Oeste 17 Este 0 -- -- 61
2019-06-18 05:00:00 14.4 17 Este 23 Este 0 -- -- 48
2019-06-18 04:00:00 13.5 2 Nordeste 9 Nordeste 0 -- -- 50
2019-06-18 03:00:00 14.2 7 Este 15 Sur 0 -- -- 55
2019-06-18 02:00:00 15 2 Sudeste 13 Nordeste 0 -- -- 56
2019-06-18 01:00:00 15.2 3 Sudeste 7 Nordeste 0 -- -- 53
2019-06-18 00:00:00 16.1 2 Sudoeste 21 Oeste 0 -- -- 53
2019-06-17 23:00:00 18.3 3 Sudoeste 11 Norte 0 -- -- 46
2019-06-17 22:00:00 21.1 5 Norte 8 Norte 0 -- -- 33
2019-06-17 21:00:00 23 3 Oeste 16 Sudoeste 0 -- -- 29
2019-06-17 20:00:00 24.2 11 Oeste 26 Oeste 0 -- -- 26
2019-06-17 19:00:00 24.8 12 Oeste 25 Oeste 0 -- -- 27
2019-06-17 18:00:00 26.2 18 Oeste 29 Oeste 0 -- -- 23
2019-06-17 17:00:00 26 15 Oeste 36 Oeste 0 -- -- 23
2019-06-17 16:00:00 25.6 13 Sudoeste 39 Oeste 0 -- -- 22
2019-06-17 15:00:00 24.9 11 Sudoeste 39 Oeste 0 -- -- 27
2019-06-17 14:00:00 24 21 Sudoeste 32 Sudoeste 0 -- -- 26
2019-06-17 13:00:00 23.1 20 Oeste 32 Oeste 0 -- -- 30
2019-06-17 12:00:00 22.3 17 Oeste 29 Noroeste 0 -- -- 30
2019-06-17 11:00:00 21 10 Noroeste 18 Oeste 0 -- -- 41
2019-06-17 10:00:00 17.7 2 Sudoeste 4 Sur 0 -- -- 56
2019-06-17 09:00:00 13.4 2 Sudeste 4 Nordeste 0 -- -- 70
2019-06-17 08:00:00 9.1 0 Calma 2 Este 0 -- -- 82
2019-06-17 07:00:00 6.4 0 Calma 6 Noroeste 0 -- -- 82
2019-06-17 06:00:00 7.4 0 Calma 2 Este 0 -- -- 84
2019-06-17 05:00:00 7.7 2 Este 3 Este 0 -- -- 83
2019-06-17 04:00:00 8.5 0 Calma 6 Noroeste 0 -- -- 80
2019-06-17 03:00:00 9.5 2 Este 11 Oeste 0 -- -- 79
2019-06-17 02:00:00 10.5 5 Oeste 9 Oeste 0 -- -- 74
2019-06-17 01:00:00 12.5 0 Calma 19 Sudeste 0 -- -- 67
2019-06-17 00:00:00 15.4 16 Sudeste 27 Este 0 -- -- 58
2019-06-16 23:00:00 16.2 17 Este 22 Este 0 -- -- 56
2019-06-16 22:00:00 17.9 11 Este 21 Este 0 -- -- 50
2019-06-16 21:00:00 19.8 14 Este 28 Sudeste 0 -- -- 46
2019-06-16 20:00:00 23.8 9 Oeste 21 Oeste 0 -- -- 26
2019-06-16 19:00:00 24.1 9 Noroeste 19 Noroeste 0 -- -- 26
2019-06-16 18:00:00 23.5 11 Noroeste 26 Oeste 0 -- -- 29
2019-06-16 17:00:00 23.7 11 Oeste 25 Noroeste 0 -- -- 27
2019-06-16 16:00:00 23.1 12 Sudoeste 30 Oeste 0 -- -- 27
2019-06-16 15:00:00 22.6 15 Sudoeste 30 Sudoeste 0 -- -- 31
2019-06-16 14:00:00 21.9 12 Sudoeste 25 Noroeste 0 -- -- 29
2019-06-16 13:00:00 20.6 12 Noroeste 30 Oeste 0 -- -- 35
2019-06-16 12:00:00 20.3 9 Sudoeste 20 Sur 0 -- -- 39
2019-06-16 11:00:00 18.4 6 Sudeste 19 Sudeste 0 -- -- 47
2019-06-16 10:00:00 15.4 14 Sudeste 18 Sudeste 0 -- -- 61
2019-06-16 09:00:00 11.7 10 Sudeste 14 Este 0 -- -- 78
2019-06-16 08:00:00 7.9 6 Este 13 Este 0 -- -- 91
2019-06-16 07:00:00 5.9 9 Este 14 Este 0 -- -- 96
2019-06-16 06:00:00 5.6 6 Este 13 Este 0 -- -- 95
2019-06-16 05:00:00 6.1 6 Este 11 Este 0 -- -- 93
2019-06-16 04:00:00 6.9 3 Este 21 Este 0 -- -- 90
2019-06-16 03:00:00 8 13 Sudeste 25 Este 0 -- -- 89
2019-06-16 02:00:00 9 19 Este 31 Este 0 -- -- 87
2019-06-16 01:00:00 9.5 22 Este 28 Este 0 -- -- 85
2019-06-16 00:00:00 10.3 18 Este 26 Este 0 -- -- 81
2019-06-15 23:00:00 11.7 14 Este 23 Este 0 -- -- 70
2019-06-15 22:00:00 13.3 13 Este 26 Nordeste 0 -- -- 62
2019-06-15 21:00:00 15.2 16 Nordeste 27 Nordeste 0 -- -- 56
2019-06-15 20:00:00 18.1 12 Noroeste 20 Oeste 0 -- -- 44
2019-06-15 19:00:00 19 13 Noroeste 24 Oeste 0 -- -- 38
2019-06-15 18:00:00 18.8 13 Oeste 29 Oeste 0 -- -- 38
2019-06-15 17:00:00 18.5 14 Oeste 27 Sudoeste 0 -- -- 42
2019-06-15 16:00:00 17.5 12 Oeste 27 Sudoeste 0 -- -- 39
2019-06-15 15:00:00 16.6 12 Noroeste 33 Noroeste 0 -- -- 45
2019-06-15 14:00:00 15.2 16 Oeste 26 Oeste 0 -- -- 49
2019-06-15 13:00:00 13.6 12 Noroeste 20 Noroeste 0 -- -- 55
2019-06-15 12:00:00 12.1 15 Oeste 25 Oeste 0 -- -- 65
2019-06-15 11:00:00 11.5 9 Oeste 20 Oeste 0 -- -- 71
2019-06-15 10:00:00 10.2 5 Noroeste 12 Noroeste 0 -- -- 77
2019-06-15 09:00:00 8.5 9 Noroeste 21 Noroeste 0 -- -- 83
2019-06-15 08:00:00 8.3 4 Oeste 9 Oeste 0 -- -- 92
2019-06-15 07:00:00 8.1 7 Este 14 Este 0 -- -- 95
2019-06-15 06:00:00 7.5 8 Este 13 Sudeste 0 -- -- 95
2019-06-15 05:00:00 8.1 5 Este 12 Este 0 -- -- 94
2019-06-15 04:00:00 8 4 Este 8 Sudeste 0 -- -- 92
2019-06-15 03:00:00 7.2 2 Este 6 Noroeste 0 -- -- 86
2019-06-15 02:00:00 8.7 2 Oeste 9 Noroeste 0 -- -- 78
2019-06-15 01:00:00 9.9 2 Oeste 9 Oeste 0 -- -- 81
2019-06-15 00:00:00 10.6 9 Oeste 15 Noroeste 0 -- -- 72
2019-06-14 23:00:00 12.6 9 Noroeste 14 Noroeste 0 -- -- 55
2019-06-14 22:00:00 14.6 7 Noroeste 13 Oeste 0 -- -- 36
2019-06-14 21:00:00 17.1 12 Noroeste 36 Oeste 0 -- -- 31
2019-06-14 20:00:00 19.4 26 Oeste 41 Oeste 0 -- -- 28
2019-06-14 19:00:00 20.3 19 Oeste 37 Noroeste 0 -- -- 27
2019-06-14 18:00:00 19.7 25 Oeste 42 Oeste 0 -- -- 26
2019-06-14 17:00:00 21.3 21 Noroeste 39 Oeste 0 -- -- 29
2019-06-14 16:00:00 21.3 19 Oeste 43 Oeste 0 -- -- 32
2019-06-14 15:00:00 20.1 24 Oeste 43 Oeste 0 -- -- 34
2019-06-14 14:00:00 20.3 17 Oeste 33 Oeste 0 -- -- 35
2019-06-14 13:00:00 19.2 21 Sudoeste 39 Oeste 0 -- -- 38
2019-06-14 12:00:00 18.3 20 Oeste 33 Oeste 0 -- -- 41
2019-06-14 11:00:00 18.1 18 Oeste 29 Oeste 0 -- -- 42
2019-06-14 10:00:00 15.1 3 Oeste 9 Sudeste 0 -- -- 65
2019-06-14 09:00:00 11.1 10 Sudeste 20 Este 0 -- -- 84
2019-06-14 08:00:00 8.4 8 Sudeste 12 Sudeste 0 -- -- 99
2019-06-14 07:00:00 7.4 7 Este 13 Este 0 -- -- 98
2019-06-14 06:00:00 7 6 Este 17 Este 0 -- -- 97
2019-06-14 05:00:00 8.3 9 Este 28 Este 0 -- -- 98
2019-06-14 04:00:00 8.9 19 Este 32 Este 0 -- -- 98
2019-06-14 03:00:00 8.9 21 Este 32 Este 0 -- -- 98
2019-06-14 02:00:00 9.1 21 Este 35 Sudeste 0 -- -- 96
2019-06-14 01:00:00 9.3 24 Este 37 Este 0 -- -- 96
2019-06-14 00:00:00 9.8 28 Este 33 Este 0 -- -- 92
2019-06-13 23:00:00 12.5 11 Sudeste 23 Este 0 -- -- 68
2019-06-13 22:00:00 16.5 4 Nordeste 23 Oeste 0 -- -- 43
2019-06-13 21:00:00 19.7 6 Sur 19 Sudoeste 0 -- -- 34
2019-06-13 20:00:00 20.7 15 Oeste 35 Oeste 0 -- -- 31
2019-06-13 19:00:00 21.4 19 Oeste 38 Sudoeste 0 -- -- 31
2019-06-13 18:00:00 21.3 25 Oeste 38 Oeste 0 -- -- 29
2019-06-13 17:00:00 21.5 17 Sudoeste 46 Oeste 0 -- -- 29
2019-06-13 16:00:00 21.3 21 Oeste 47 Sudoeste 0 -- -- 31
2019-06-13 15:00:00 20.9 24 Oeste 50 Sudoeste 0 -- -- 35
2019-06-13 14:00:00 19 20 Sudoeste 41 Sudoeste 0 -- -- 37
2019-06-13 13:00:00 18.9 19 Sudoeste 42 Oeste 0 -- -- 41
2019-06-13 12:00:00 17.7 16 Sudoeste 41 Oeste 0 -- -- 48
2019-06-13 11:00:00 16 14 Sudoeste 30 Sudoeste 0 -- -- 51
2019-06-13 10:00:00 14.2 9 Sudoeste 27 Sudoeste 0 -- -- 61
2019-06-13 09:00:00 10.8 3 Nordeste 13 Sudoeste 0 -- -- 77
2019-06-13 08:00:00 6.2 5 Noroeste 14 Oeste 0 -- -- 88
2019-06-13 07:00:00 3.7 5 Norte 9 Nordeste 0 -- -- 92
2019-06-13 06:00:00 4.4 6 Noroeste 13 Este 0 -- -- 92
2019-06-13 05:00:00 5.4 6 Este 23 Este 0 -- -- 92
2019-06-13 04:00:00 6.8 18 Este 30 Este 0 -- -- 88
2019-06-13 03:00:00 6.7 10 Sudeste 32 Este 0 -- -- 89
2019-06-13 02:00:00 7.4 15 Este 31 Este 0 -- -- 86
2019-06-13 01:00:00 8.4 20 Este 33 Este 0 -- -- 82
2019-06-13 00:00:00 9.8 13 Este 24 Este 0 -- -- 72
2019-06-12 23:00:00 11.1 21 Este 28 Este 0 -- -- 58
2019-06-12 22:00:00 11.6 6 Sudeste 10 Este 0 -- -- 49
2019-06-12 21:00:00 14.7 5 Este 7 Sudeste 0 -- -- 40
2019-06-12 20:00:00 16.2 6 Oeste 31 Oeste 0 -- -- 33
2019-06-12 19:00:00 16.7 12 Oeste 31 Sudoeste 0 -- -- 33
2019-06-12 18:00:00 15.6 17 Oeste 35 Oeste 0 -- -- 30
2019-06-12 17:00:00 15.9 16 Sudoeste 35 Sudoeste 0 -- -- 34
2019-06-12 16:00:00 15.1 13 Oeste 37 Sudoeste 0 -- -- 34
2019-06-12 15:00:00 14 12 Noroeste 35 Oeste 0 -- -- 40
2019-06-12 14:00:00 13.2 11 Oeste 34 Oeste 0 -- -- 44
2019-06-12 13:00:00 12 21 Oeste 37 Oeste 0 -- -- 45
2019-06-12 12:00:00 10.6 19 Oeste 33 Oeste 0 -- -- 53
2019-06-12 11:00:00 9.2 15 Oeste 27 Noroeste 0 -- -- 57
2019-06-12 10:00:00 7.5 10 Noroeste 22 Oeste 0 -- -- 67
2019-06-12 09:00:00 5.3 9 Noroeste 17 Noroeste 0 -- -- 88
2019-06-12 08:00:00 -0.1 3 Noroeste 5 Oeste 0 -- -- 97
2019-06-12 07:00:00 -0.7 2 Noroeste 5 Noroeste 0 -- -- 97
2019-06-12 06:00:00 -0.9 0 Calma 5 Noroeste 0 -- -- 95
2019-06-12 05:00:00 -0.9 0 Calma 3 Sur 0 -- -- 95
2019-06-12 04:00:00 -0.7 0 Calma 6 Oeste 0 -- -- 92
2019-06-12 03:00:00 0.5 0 Calma 4 Nordeste 0 -- -- 92
2019-06-12 02:00:00 0.8 2 Este 3 Este 0 -- -- 90
2019-06-12 01:00:00 2.6 0 Calma 10 Este 0 -- -- 87
2019-06-12 00:00:00 3.7 2 Sudeste 9 Nordeste 0 -- -- 83
2019-06-11 23:00:00 5.5 6 Este 22 Nordeste 0 -- -- 78
2019-06-11 22:00:00 5.5 5 Este 14 Este 0 -- -- 78
2019-06-11 21:00:00 8.1 9 Este 25 Sudeste 0 -- -- 66
2019-06-11 20:00:00 9.5 12 Sudeste 28 Norte 0 -- -- 63
2019-06-11 19:00:00 9.1 16 Norte 36 Norte 0.2 -- -- 65
2019-06-11 18:00:00 10.5 17 Norte 37 Norte 0 -- -- 55
2019-06-11 17:00:00 10 20 Nordeste 39 Nordeste 0 -- -- 62
2019-06-11 16:00:00 10.2 16 Norte 35 Noroeste 0 -- -- 54
2019-06-11 15:00:00 9.2 13 Nordeste 37 Nordeste 0 -- -- 58
2019-06-11 14:00:00 8.8 12 Norte 26 Norte 0 -- -- 69
2019-06-11 13:00:00 8.7 15 Nordeste 36 Nordeste 0 -- -- 62
2019-06-11 12:00:00 8.3 14 Norte 29 Noroeste 0 -- -- 74
2019-06-11 11:00:00 7.3 13 Norte 23 Norte 0 -- -- 71
2019-06-11 10:00:00 7.3 7 Noroeste 22 Este 0 -- -- 77
2019-06-11 09:00:00 5.4 3 Este 16 Este 0 -- -- 92
2019-06-11 08:00:00 4.6 7 Sudeste 10 Sudeste 0 -- -- 97
2019-06-11 07:00:00 4.2 9 Sudeste 14 Este 0 -- -- 97
2019-06-11 06:00:00 4.2 11 Este 16 Este 0.2 -- -- 97
2019-06-11 05:00:00 4.2 11 Este 20 Sudeste 1 -- -- 97
2019-06-11 04:00:00 4.6 12 Sudeste 17 Este 1 -- -- 96
2019-06-11 03:00:00 5.1 13 Este 21 Este 0.2 -- -- 93
2019-06-11 02:00:00 5.9 15 Este 25 Este 0 -- -- 90
2019-06-11 01:00:00 6.5 17 Este 31 Sudeste 0 -- -- 88
2019-06-11 00:00:00 6.8 21 Este 37 Este 0 -- -- 85
2019-06-10 23:00:00 7.9 23 Este 30 Este 0 -- -- 82
2019-06-10 22:00:00 8.9 16 Este 27 Este 0 -- -- 77
2019-06-10 21:00:00 10.2 15 Este 22 Este 0 -- -- 69
2019-06-10 20:00:00 11.4 13 Nordeste 31 Nordeste 0 -- -- 64
2019-06-10 19:00:00 12.3 14 Este 25 Nordeste 0 -- -- 64
2019-06-10 18:00:00 13.3 14 Sudeste 27 Nordeste 0 -- -- 67
2019-06-10 17:00:00 13.3 12 Este 26 Este 0 -- -- 62
2019-06-10 16:00:00 15.2 12 Oeste 26 Oeste 0 -- -- 56
2019-06-10 15:00:00 15 12 Noroeste 32 Oeste 0 -- -- 59
2019-06-10 14:00:00 15.1 18 Oeste 31 Oeste 0 -- -- 54
2019-06-10 13:00:00 13.7 8 Este 26 Sudeste 0 -- -- 58
2019-06-10 12:00:00 11.6 17 Sudeste 31 Este 0 -- -- 70
2019-06-10 11:00:00 9.8 20 Sudeste 28 Sudeste 0 -- -- 78
2019-06-10 10:00:00 7.6 18 Este 24 Este 0 -- -- 87
2019-06-10 09:00:00 7.3 14 Sudeste 25 Sudeste 0 -- -- 91
2019-06-10 08:00:00 6.9 19 Sudeste 27 Sudeste 0 -- -- 93
2019-06-10 07:00:00 6.7 17 Sudeste 26 Sudeste 0 -- -- 95
2019-06-10 06:00:00 6.9 14 Este 21 Sudeste 0 -- -- 94
2019-06-10 05:00:00 7.3 9 Este 24 Este 0 -- -- 93
2019-06-10 04:00:00 7.1 15 Este 22 Este 0 -- -- 94
2019-06-10 03:00:00 7.4 13 Este 21 Este 0 -- -- 90
2019-06-10 02:00:00 7.8 13 Este 31 Este 0 -- -- 86
2019-06-10 01:00:00 8 14 Este 45 Este 0 -- -- 84
2019-06-10 00:00:00 8.6 24 Nordeste 34 Nordeste 0 -- -- 84
2019-06-09 23:00:00 9.3 22 Nordeste 36 Nordeste 0 -- -- 83
2019-06-09 22:00:00 10 18 Este 42 Nordeste 0 -- -- 84
2019-06-09 21:00:00 10.3 31 Nordeste 50 Nordeste 0 -- -- 85
2019-06-09 20:00:00 13.5 28 Nordeste 45 Nordeste 0 -- -- 70
2019-06-09 19:00:00 18.1 12 Norte 24 Norte 0 -- -- 50
2019-06-09 18:00:00 19.8 18 Oeste 37 Oeste 0 -- -- 39
2019-06-09 17:00:00 19.3 13 Oeste 31 Oeste 0 -- -- 38
2019-06-09 16:00:00 18.4 9 Noroeste 32 Noroeste 0 -- -- 43
2019-06-09 15:00:00 19 17 Noroeste 35 Oeste 0 -- -- 41
2019-06-09 14:00:00 18.7 17 Oeste 36 Oeste 0 -- -- 37
2019-06-09 13:00:00 17.9 19 Noroeste 36 Oeste 0 -- -- 48
2019-06-09 12:00:00 17.3 17 Oeste 30 Oeste 0 -- -- 49
2019-06-09 11:00:00 16.1 15 Noroeste 24 Noroeste 0 -- -- 53
2019-06-09 10:00:00 14.7 5 Noroeste 14 Noroeste 0 -- -- 62
2019-06-09 09:00:00 11 2 Oeste 6 Sudoeste 0 -- -- 87
2019-06-09 08:00:00 7.6 0 Calma 6 Sudoeste 0 -- -- 99
2019-06-09 07:00:00 6.7 3 Noroeste 10 Sudoeste 0 -- -- 97
2019-06-09 06:00:00 7.9 6 Este 17 Este 0 -- -- 96
2019-06-09 05:00:00 8.7 0 Calma 12 Este 0 -- -- 92
2019-06-09 04:00:00 9.8 0 Calma 22 Este 0 -- -- 87
2019-06-09 03:00:00 10.3 19 Este 36 Este 0 -- -- 89
2019-06-09 02:00:00 10.7 25 Este 36 Este 0 -- -- 88
2019-06-09 01:00:00 11.4 22 Sudeste 36 Este 0 -- -- 84
2019-06-09 00:00:00 12.4 24 Este 34 Este 0 -- -- 79
2019-06-08 23:00:00 13.1 12 Sudeste 25 Este 0 -- -- 75
2019-06-08 22:00:00 13.7 15 Este 22 Sudeste 0 -- -- 76
2019-06-08 21:00:00 16.3 15 Este 26 Este 0 -- -- 57
2019-06-08 20:00:00 17.3 19 Este 31 Este 0 -- -- 54
2019-06-08 19:00:00 20.3 9 Sudoeste 26 Sur 0 -- -- 41
2019-06-08 18:00:00 20.2 14 Sur 27 Sur 0 -- -- 39
2019-06-08 17:00:00 19.5 13 Sur 48 Sudeste 0 -- -- 43
2019-06-08 16:00:00 19.3 16 Sudoeste 27 Sur 0 -- -- 38
2019-06-08 15:00:00 19.1 19 Sudoeste 36 Sudoeste 0 -- -- 37
2019-06-08 14:00:00 18.8 13 Sudoeste 31 Sudoeste 0 -- -- 34
2019-06-08 13:00:00 17.6 12 Sur 29 Sur 0 -- -- 36
2019-06-08 12:00:00 16.2 15 Sur 27 Este 0 -- -- 39
2019-06-08 11:00:00 14.3 15 Sudeste 26 Este 0 -- -- 47
2019-06-08 10:00:00 11.4 17 Sudeste 22 Sudeste 0 -- -- 61
2019-06-08 09:00:00 7.4 6 Sudeste 13 Sudeste 0 -- -- 80
2019-06-08 08:00:00 3.1 2 Este 9 Este 0 -- -- 90
2019-06-08 07:00:00 1.6 8 Este 12 Este 0 -- -- 95
2019-06-08 06:00:00 1.5 6 Este 9 Este 0 -- -- 94
2019-06-08 05:00:00 2 4 Este 8 Este 0 -- -- 94
2019-06-08 04:00:00 1.2 0 Calma 5 Sudeste 0 -- -- 91
2019-06-08 03:00:00 2.4 5 Sudeste 9 Este 0 -- -- 90
2019-06-08 02:00:00 2 0 Calma 3 Noroeste 0 -- -- 87
2019-06-08 01:00:00 2.6 0 Calma 5 Noroeste 0 -- -- 84
2019-06-08 00:00:00 3.8 0 Calma 6 Noroeste 0 -- -- 80
2019-06-07 23:00:00 5.7 2 Sur 4 Este 0 -- -- 72
2019-06-07 22:00:00 8.6 3 Norte 8 Norte 0 -- -- 59
2019-06-07 21:00:00 11.7 5 Noroeste 22 Oeste 0 -- -- 49
2019-06-07 20:00:00 12 9 Oeste 31 Oeste 0 -- -- 46
2019-06-07 19:00:00 13.4 24 Oeste 35 Oeste 0 -- -- 39
2019-06-07 18:00:00 13.1 22 Oeste 37 Noroeste 0 -- -- 44
2019-06-07 17:00:00 12.2 19 Noroeste 35 Oeste 0 -- -- 45
2019-06-07 16:00:00 12.5 24 Oeste 37 Oeste 0 -- -- 49
2019-06-07 15:00:00 10.7 22 Noroeste 38 Oeste 0 -- -- 54
2019-06-07 14:00:00 10 21 Noroeste 39 Oeste 0 -- -- 58
2019-06-07 13:00:00 9.2 23 Oeste 36 Oeste 0 -- -- 64
2019-06-07 12:00:00 7.5 28 Oeste 42 Oeste 0 -- -- 72
2019-06-07 11:00:00 6.2 19 Oeste 39 Oeste 0 -- -- 81
2019-06-07 10:00:00 5.5 26 Oeste 45 Oeste 0 -- -- 85
2019-06-07 09:00:00 5 25 Oeste 49 Oeste 0 -- -- 89
2019-06-07 08:00:00 4.5 32 Oeste 54 Oeste 0 -- -- 91
2019-06-07 07:00:00 4.5 31 Oeste 54 Oeste 0 -- -- 90
2019-06-07 06:00:00 4.7 25 Oeste 49 Oeste 0 -- -- 93
2019-06-07 05:00:00 5 23 Oeste 36 Oeste 0 -- -- 93
2019-06-07 04:00:00 4.3 15 Oeste 40 Oeste 2.2 -- -- 95
2019-06-07 03:00:00 4.6 17 Oeste 49 Noroeste 1.2 -- -- 93
2019-06-07 02:00:00 7.7 28 Oeste 50 Noroeste 0.8 -- -- 91
2019-06-07 01:00:00 10.4 12 Oeste 46 Oeste 0.4 -- -- 80
2019-06-07 00:00:00 14.2 15 Oeste 45 Oeste 0 -- -- 46
2019-06-06 23:00:00 15 29 Oeste 53 Oeste 0 -- -- 44
2019-06-06 22:00:00 15.8 18 Sudoeste 39 Oeste 0 -- -- 36
2019-06-06 21:00:00 16.1 21 Sudoeste 49 Oeste 0 -- -- 36
2019-06-06 20:00:00 16.2 26 Sudoeste 54 Oeste 0 -- -- 34
2019-06-06 19:00:00 17.6 37 Oeste 56 Sudoeste 0 -- -- 32
2019-06-06 18:00:00 18.1 30 Sudoeste 61 Oeste 0 -- -- 33
2019-06-06 17:00:00 18.3 31 Sudoeste 51 Sudoeste 0 -- -- 34
2019-06-06 16:00:00 17.5 25 Sudoeste 49 Oeste 0 -- -- 36
2019-06-06 15:00:00 16.6 21 Sudoeste 41 Sudoeste 0 -- -- 36
2019-06-06 14:00:00 15.6 21 Sudoeste 44 Oeste 0 -- -- 44
2019-06-06 13:00:00 13.8 15 Sudoeste 40 Oeste 0.2 -- -- 49
2019-06-06 12:00:00 12.4 18 Sudoeste 32 Sudoeste 0 -- -- 55
2019-06-06 11:00:00 10.8 14 Sudoeste 31 Oeste 0 -- -- 62
2019-06-06 10:00:00 9.8 4 Norte 8 Sudoeste 0 -- -- 75
2019-06-06 09:00:00 7.3 0 Calma 4 Sudoeste 0 -- -- 96
2019-06-06 08:00:00 5 0 Calma 2 Sur 0 -- -- 98
2019-06-06 07:00:00 4.5 0 Calma 2 Sudoeste 0 -- -- 98
2019-06-06 06:00:00 4.4 0 Calma 5 Sur 0 -- -- 98
2019-06-06 05:00:00 4.3 2 Oeste 6 Sudeste 0 -- -- 97
2019-06-06 04:00:00 4.8 2 Este 13 Este 0 -- -- 98
2019-06-06 03:00:00 5.2 10 Este 20 Sudeste 0 -- -- 99
2019-06-06 02:00:00 5.5 7 Este 24 Este 0 -- -- 98
2019-06-06 01:00:00 5.6 21 Sudeste 29 Este 0 -- -- 98
2019-06-06 00:00:00 5.9 14 Este 24 Este 0 -- -- 95
2019-06-05 23:00:00 6.8 18 Este 23 Este 0 -- -- 93
2019-06-05 22:00:00 7.7 13 Este 23 Este 0.2 -- -- 91
2019-06-05 21:00:00 8.9 17 Este 24 Este 0 -- -- 82
2019-06-05 20:00:00 10.2 16 Este 24 Este 0 -- -- 75
2019-06-05 19:00:00 11.2 8 Este 17 Sudeste 0 -- -- 70
2019-06-05 18:00:00 10.1 14 Sudeste 20 Este 0 -- -- 79
2019-06-05 17:00:00 10.3 8 Sudeste 23 Este 0.2 -- -- 74
2019-06-05 16:00:00 9.5 6 Oeste 37 Oeste 0.2 -- -- 76
2019-06-05 15:00:00 10.2 6 Oeste 18 Oeste 0 -- -- 74
2019-06-05 14:00:00 8.7 10 Sudoeste 32 Noroeste 1.4 -- -- 83
2019-06-05 13:00:00 9.1 7 Norte 28 Norte 0 -- -- 70
2019-06-05 12:00:00 8.2 13 Norte 31 Norte 0 -- -- 76
2019-06-05 11:00:00 6.5 6 Noroeste 26 Norte 0 -- -- 81
2019-06-05 10:00:00 6.7 12 Norte 26 Norte 0.2 -- -- 81
2019-06-05 09:00:00 7.3 4 Nordeste 22 Este 0.2 -- -- 86
2019-06-05 08:00:00 7.1 6 Este 18 Este 0.4 -- -- 93
2019-06-05 07:00:00 7.3 8 Este 24 Este 0.2 -- -- 94
2019-06-05 06:00:00 7.6 17 Nordeste 27 Nordeste 0 -- -- 92
2019-06-05 05:00:00 7.9 14 Sudeste 22 Este 0 -- -- 96
2019-06-05 04:00:00 8.1 12 Este 23 Sudeste 0 -- -- 96
2019-06-05 03:00:00 8.5 15 Sudeste 31 Sudeste 0 -- -- 96
2019-06-05 02:00:00 8.7 23 Sudeste 30 Este 0 -- -- 95
2019-06-05 01:00:00 9.4 24 Este 32 Este 0 -- -- 95
2019-06-05 00:00:00 10.1 21 Este 28 Este 0 -- -- 93
2019-06-04 23:00:00 12.5 15 Este 27 Este 0 -- -- 82
2019-06-04 22:00:00 15.6 3 Norte 21 Noroeste 0 -- -- 58
2019-06-04 21:00:00 17.1 9 Norte 26 Noroeste 0 -- -- 52
2019-06-04 20:00:00 18.4 15 Noroeste 28 Oeste 0 -- -- 46
2019-06-04 19:00:00 19.4 19 Oeste 30 Noroeste 0 -- -- 44
2019-06-04 18:00:00 20.6 17 Noroeste 38 Oeste 0 -- -- 44
2019-06-04 17:00:00 21.6 24 Oeste 39 Oeste 0 -- -- 39
2019-06-04 16:00:00 21.8 26 Oeste 46 Oeste 0 -- -- 39
2019-06-04 15:00:00 20.9 28 Oeste 45 Oeste 0 -- -- 42
2019-06-04 14:00:00 20.1 26 Oeste 40 Oeste 0 -- -- 46
2019-06-04 13:00:00 19.2 25 Oeste 39 Oeste 0 -- -- 57
2019-06-04 12:00:00 18.3 17 Oeste 33 Oeste 0 -- -- 59
2019-06-04 11:00:00 17.1 19 Oeste 36 Oeste 0 -- -- 71
2019-06-04 10:00:00 16.2 13 Noroeste 22 Noroeste 0 -- -- 73
2019-06-04 09:00:00 11.5 3 Oeste 9 Oeste 0 -- -- 73
2019-06-04 08:00:00 8.3 2 Oeste 4 Noroeste 0 -- -- 78
2019-06-04 07:00:00 6.3 0 Calma 5 Norte 0 -- -- 79
2019-06-04 06:00:00 7.6 2 Oeste 4 Oeste 0 -- -- 78
2019-06-04 05:00:00 8.2 0 Calma 4 Oeste 0 -- -- 74
2019-06-04 04:00:00 8.9 0 Calma 9 Sur 0 -- -- 71
2019-06-04 03:00:00 9.7 0 Calma 4 Sudoeste 0 -- -- 67
2019-06-04 02:00:00 10.9 0 Calma 3 Oeste 0 -- -- 61
2019-06-04 01:00:00 12.5 2 Noroeste 3 Noroeste 0 -- -- 55
2019-06-04 00:00:00 13.9 0 Calma 4 Este 0 -- -- 48
2019-06-03 23:00:00 15.3 3 Este 7 Noroeste 0 -- -- 45
2019-06-03 22:00:00 19.1 0 Calma 12 Noroeste 0 -- -- 33
2019-06-03 21:00:00 22.5 8 Norte 27 Oeste 0 -- -- 25
2019-06-03 20:00:00 24.6 14 Oeste 24 Oeste 0 -- -- 20
2019-06-03 19:00:00 24.7 16 Noroeste 30 Oeste 0 -- -- 22
2019-06-03 18:00:00 25.3 21 Noroeste 43 Oeste 0 -- -- 20
2019-06-03 17:00:00 25.1 19 Oeste 35 Oeste 0 -- -- 23
2019-06-03 16:00:00 24.9 23 Oeste 40 Oeste 0 -- -- 25
2019-06-03 15:00:00 24.3 23 Oeste 37 Noroeste 0 -- -- 26
2019-06-03 14:00:00 23.5 20 Oeste 36 Noroeste 0 -- -- 29
2019-06-03 13:00:00 22.3 17 Oeste 33 Oeste 0 -- -- 34
2019-06-03 12:00:00 21.1 15 Oeste 22 Oeste 0 -- -- 32
2019-06-03 11:00:00 19.3 8 Noroeste 15 Oeste 0 -- -- 43
2019-06-03 10:00:00 17.5 9 Noroeste 17 Noroeste 0 -- -- 48
2019-06-03 09:00:00 11.9 3 Noroeste 26 Oeste 0 -- -- 73
2019-06-03 08:00:00 9.8 0 Calma 5 Oeste 0 -- -- 80
2019-06-03 07:00:00 8.8 0 Calma 4 Noroeste 0 -- -- 78
2019-06-03 06:00:00 9.6 0 Calma 7 Noroeste 0 -- -- 72
2019-06-03 05:00:00 9.1 4 Este 6 Oeste 0 -- -- 74
2019-06-03 04:00:00 10.4 5 Oeste 8 Oeste 0 -- -- 68
2019-06-03 03:00:00 11.7 0 Calma 5 Oeste 0 -- -- 62
2019-06-03 02:00:00 12.1 2 Este 4 Este 0 -- -- 61
2019-06-03 01:00:00 13.6 2 Oeste 8 Noroeste 0 -- -- 57
2019-06-03 00:00:00 14.9 3 Este 7 Noroeste 0 -- -- 50
2019-06-02 23:00:00 17.7 0 Calma 3 Sudeste 0 -- -- 40
2019-06-02 22:00:00 20.5 0 Calma 17 Norte 0 -- -- 37
2019-06-02 21:00:00 23.6 6 Norte 23 Noroeste 0 -- -- 29
2019-06-02 20:00:00 24.9 4 Noroeste 24 Noroeste 0 -- -- 30
2019-06-02 19:00:00 24.8 16 Noroeste 30 Oeste 0 -- -- 28
2019-06-02 18:00:00 25.9 22 Noroeste 41 Oeste 0 -- -- 28
2019-06-02 17:00:00 26.1 20 Noroeste 33 Oeste 0 -- -- 30
2019-06-02 16:00:00 25.6 19 Noroeste 36 Oeste 0 -- -- 34
2019-06-02 15:00:00 25 18 Noroeste 31 Oeste 0 -- -- 37
2019-06-02 14:00:00 25.6 14 Oeste 29 Oeste 0 -- -- 38
2019-06-02 13:00:00 24.7 16 Oeste 23 Oeste 0 -- -- 38
2019-06-02 12:00:00 23.2 11 Noroeste 17 Noroeste 0 -- -- 42
2019-06-02 11:00:00 22.3 10 Noroeste 20 Noroeste 0 -- -- 40
2019-06-02 10:00:00 18.8 4 Oeste 9 Oeste 0 -- -- 60
2019-06-02 09:00:00 15 2 Noroeste 4 Sudoeste 0 -- -- 68
2019-06-02 08:00:00 11.7 0 Calma 5 Nordeste 0 -- -- 77
2019-06-02 07:00:00 8.7 3 Norte 13 Noroeste 0 -- -- 83
2019-06-02 06:00:00 8.7 6 Este 13 Noroeste 0 -- -- 84
2019-06-02 05:00:00 10.3 4 Oeste 12 Sur 0 -- -- 78
2019-06-02 04:00:00 11.1 5 Nordeste 13 Nordeste 0 -- -- 75
2019-06-02 03:00:00 11.9 6 Sudeste 13 Este 0 -- -- 70
2019-06-02 02:00:00 12.4 3 Norte 8 Oeste 0 -- -- 68
2019-06-02 01:00:00 14.1 4 Este 11 Este 0 -- -- 61
2019-06-02 00:00:00 15.1 0 Calma 10 Este 0 -- -- 59
2019-06-01 23:00:00 17.5 6 Este 13 Sudeste 0 -- -- 48
2019-06-01 22:00:00 19.6 9 Este 15 Este 0 -- -- 44
2019-06-01 21:00:00 22.6 9 Este 25 Este 0 -- -- 37
2019-06-01 20:00:00 24.4 18 Este 26 Sudeste 0 -- -- 36
2019-06-01 19:00:00 25.6 17 Sudeste 25 Sudeste 0 -- -- 36
2019-06-01 18:00:00 25.4 15 Sudeste 28 Nordeste 0 -- -- 34
2019-06-01 17:00:00 26.6 16 Sudeste 24 Norte 0 -- -- 32
2019-06-01 16:00:00 27.2 14 Oeste 27 Oeste 0 -- -- 32
2019-06-01 15:00:00 26.8 11 Oeste 25 Oeste 0 -- -- 31
2019-06-01 14:00:00 26 10 Oeste 23 Noroeste 0 -- -- 33
2019-06-01 13:00:00 25.4 13 Oeste 25 Oeste 0 -- -- 33
2019-06-01 12:00:00 24.6 10 Oeste 19 Oeste 0 -- -- 34
2019-06-01 11:00:00 22.7 2 Oeste 6 Sudeste 0 -- -- 40
2019-06-01 10:00:00 19.3 3 Sudeste 6 Sudeste 0 -- -- 53
2019-06-01 09:00:00 13.7 0 Calma 3 Sur 0 -- -- 72
2019-06-01 08:00:00 9.6 0 Calma 4 Sudeste 0 -- -- 83
2019-06-01 07:00:00 7.1 0 Calma 2 Este 0 -- -- 84
2019-06-01 06:00:00 7.8 0 Calma 4 Este 0 -- -- 82
2019-06-01 05:00:00 8.4 0 Calma 2 Este 0 -- -- 79
2019-06-01 04:00:00 9.1 0 Calma 3 Este 0 -- -- 75
2019-06-01 03:00:00 10 0 Calma 5 Este 0 -- -- 72
2019-06-01 02:00:00 11 0 Calma 5 Oeste 0 -- -- 69
2019-06-01 01:00:00 12.7 0 Calma 4 Oeste 0 -- -- 62
2019-06-01 00:00:00 14.1 0 Calma 8 Este 0 -- -- 58
2019-05-31 23:00:00 15.6 3 Este 12 Este 0 -- -- 51
2019-05-31 22:00:00 17.9 6 Sudeste 18 Este 0 -- -- 47
2019-05-31 21:00:00 21.2 11 Este 23 Este 0 -- -- 38
2019-05-31 20:00:00 23.1 16 Este 27 Este 0 -- -- 35
2019-05-31 19:00:00 24 14 Este 25 Nordeste 0 -- -- 40
2019-05-31 18:00:00 24.8 13 Este 28 Este 0 -- -- 38
2019-05-31 17:00:00 26 13 Oeste 26 Oeste 0 -- -- 35
2019-05-31 16:00:00 25.7 14 Oeste 21 Oeste 0 -- -- 33
2019-05-31 15:00:00 25 6 Noroeste 24 Oeste 0 -- -- 28
2019-05-31 14:00:00 24.5 6 Sudoeste 17 Sur 0 -- -- 32
2019-05-31 13:00:00 23.2 8 Sudeste 15 Este 0 -- -- 33
2019-05-31 12:00:00 21.8 7 Sudeste 20 Sudeste 0 -- -- 28
2019-05-31 11:00:00 20 15 Sudeste 22 Sudeste 0 -- -- 45
2019-05-31 10:00:00 17.4 11 Sudeste 18 Este 0 -- -- 61
2019-05-31 09:00:00 11.8 3 Oeste 8 Sudeste 0 -- -- 81
2019-05-31 08:00:00 9.8 5 Este 10 Este 0 -- -- 83
2019-05-31 07:00:00 7.1 3 Sudeste 16 Sudeste 0 -- -- 86
2019-05-31 06:00:00 7.8 9 Este 14 Sudeste 0 -- -- 87
2019-05-31 05:00:00 9.5 4 Este 11 Este 0 -- -- 80
2019-05-31 04:00:00 10.2 7 Este 13 Este 0 -- -- 79
2019-05-31 03:00:00 12.2 10 Este 19 Este 0 -- -- 70
2019-05-31 02:00:00 12.1 13 Este 18 Este 0 -- -- 72
2019-05-31 01:00:00 11.4 6 Este 14 Este 0 -- -- 74
2019-05-31 00:00:00 12.8 10 Sudeste 20 Este 0 -- -- 66
2019-05-30 23:00:00 15.1 14 Este 21 Nordeste 0 -- -- 57
2019-05-30 22:00:00 16.8 17 Nordeste 28 Nordeste 0 -- -- 49
2019-05-30 21:00:00 18.8 10 Este 27 Sudeste 0 -- -- 45
2019-05-30 20:00:00 20 13 Este 28 Nordeste 0 -- -- 38
2019-05-30 19:00:00 21 22 Nordeste 32 Este 0 -- -- 31
2019-05-30 18:00:00 22 14 Este 28 Nordeste 0 -- -- 28
2019-05-30 17:00:00 22.1 19 Este 31 Este 0 -- -- 29
2019-05-30 16:00:00 22.1 16 Este 26 Sudeste 0 -- -- 31
2019-05-30 15:00:00 21.8 17 Sudeste 30 Sudeste 0 -- -- 32
2019-05-30 14:00:00 20.9 17 Sudeste 26 Este 0 -- -- 38
2019-05-30 13:00:00 19.6 15 Sudeste 28 Sudeste 0 -- -- 44
2019-05-30 12:00:00 18 21 Sudeste 26 Sudeste 0 -- -- 53
2019-05-30 11:00:00 16 19 Este 31 Este 0 -- -- 58
2019-05-30 10:00:00 14.2 23 Este 32 Este 0 -- -- 63
2019-05-30 09:00:00 11.9 8 Sudeste 13 Sudeste 0 -- -- 73
2019-05-30 08:00:00 8.1 5 Este 14 Este 0 -- -- 82
2019-05-30 07:00:00 6.3 6 Este 8 Este 0 -- -- 84
2019-05-30 06:00:00 6.5 3 Nordeste 7 Nordeste 0 -- -- 83
2019-05-30 05:00:00 6.1 2 Este 5 Sur 0 -- -- 86
2019-05-30 04:00:00 6.6 2 Nordeste 17 Nordeste 0 -- -- 85
2019-05-30 03:00:00 9.6 13 Este 30 Este 0 -- -- 70
2019-05-30 02:00:00 9.5 19 Este 29 Este 0 -- -- 73
2019-05-30 01:00:00 9.6 15 Este 32 Este 0 -- -- 74
2019-05-30 00:00:00 9.5 22 Este 33 Este 0 -- -- 79
2019-05-29 23:00:00 9.9 18 Este 30 Este 0 -- -- 76
2019-05-29 22:00:00 10 13 Este 21 Este 0 -- -- 74
2019-05-29 21:00:00 12.9 5 Este 18 Este 0 -- -- 57
2019-05-29 20:00:00 13.5 6 Nordeste 37 Nordeste 0 -- -- 57
2019-05-29 19:00:00 13.8 15 Nordeste 39 Nordeste 0 -- -- 59
2019-05-29 18:00:00 14 15 Nordeste 42 Nordeste 0 -- -- 61
2019-05-29 17:00:00 14.5 13 Este 38 Nordeste 0 -- -- 59
2019-05-29 16:00:00 12.8 28 Nordeste 45 Nordeste 0 -- -- 65
2019-05-29 15:00:00 12.7 17 Nordeste 32 Este 0 -- -- 65
2019-05-29 14:00:00 12.9 12 Este 30 Sudeste 0 -- -- 66
2019-05-29 13:00:00 10.7 11 Este 24 Este 0 -- -- 72
2019-05-29 12:00:00 9.5 11 Este 42 Norte 0 -- -- 75
2019-05-29 11:00:00 8.6 19 Nordeste 42 Este 0 -- -- 77
2019-05-29 10:00:00 8.4 17 Este 45 Sudeste 0 -- -- 78
2019-05-29 09:00:00 8.2 19 Este 44 Sudeste 0 -- -- 76
2019-05-29 08:00:00 7.7 9 Sudeste 32 Este 0 -- -- 79
2019-05-29 07:00:00 7.2 12 Este 27 Este 0 -- -- 77
2019-05-29 06:00:00 7 6 Este 28 Este 0 -- -- 75
2019-05-29 05:00:00 6.7 7 Nordeste 27 Este 0 -- -- 77
2019-05-29 04:00:00 6.4 11 Este 39 Este 0 -- -- 75
2019-05-29 03:00:00 6.2 14 Este 32 Este 0 -- -- 72
2019-05-29 02:00:00 6.2 14 Este 37 Este 0 -- -- 74
2019-05-29 01:00:00 6.3 12 Este 36 Este 0 -- -- 72
2019-05-29 00:00:00 6.5 19 Este 37 Este 0 -- -- 75
2019-05-28 23:00:00 6.9 19 Este 36 Este 0 -- -- 74
2019-05-28 22:00:00 7.5 18 Este 34 Este 0 -- -- 72
2019-05-28 21:00:00 8.5 20 Este 36 Este 0 -- -- 68
2019-05-28 20:00:00 10.1 4 Este 30 Sudeste 0 -- -- 65
2019-05-28 19:00:00 10.6 14 Nordeste 30 Nordeste 0 -- -- 65
2019-05-28 18:00:00 10.4 13 Este 37 Este 0 -- -- 63
2019-05-28 17:00:00 11.9 15 Nordeste 40 Nordeste 0 -- -- 58
2019-05-28 16:00:00 11.8 17 Este 37 Este 0 -- -- 57
2019-05-28 15:00:00 11.7 21 Este 36 Este 0 -- -- 57
2019-05-28 14:00:00 11.5 21 Este 46 Este 0 -- -- 60
2019-05-28 13:00:00 11.4 18 Este 41 Nordeste 0 -- -- 62
2019-05-28 12:00:00 10.7 19 Este 40 Este 0 -- -- 66
2019-05-28 11:00:00 9.2 25 Este 50 Nordeste 0 -- -- 64
2019-05-28 10:00:00 8 22 Nordeste 50 Nordeste 0 -- -- 66
2019-05-28 09:00:00 7.3 11 Este 32 Este 0 -- -- 69
2019-05-28 08:00:00 5.1 10 Este 21 Este 0 -- -- 84
2019-05-28 07:00:00 3.8 9 Este 15 Este 0 -- -- 89
2019-05-28 06:00:00 4.5 14 Este 31 Este 0 -- -- 92
2019-05-28 05:00:00 4.9 16 Este 29 Este 0 -- -- 92
2019-05-28 04:00:00 5 7 Este 19 Este 0 -- -- 90
2019-05-28 03:00:00 5.5 3 Este 26 Este 0 -- -- 89
2019-05-28 02:00:00 6.2 14 Este 27 Este 0 -- -- 86
2019-05-28 01:00:00 7.1 14 Este 24 Nordeste 0 -- -- 84
2019-05-28 00:00:00 8.5 19 Este 36 Sudeste 0 -- -- 76
2019-05-27 23:00:00 9.6 15 Este 32 Este 0 -- -- 80
2019-05-27 22:00:00 10.3 17 Este 35 Este 0 -- -- 84
2019-05-27 21:00:00 11.8 15 Este 28 Este 0 -- -- 80
2019-05-27 20:00:00 13.7 16 Este 34 Este 0 -- -- 67
2019-05-27 19:00:00 14.6 19 Este 33 Este 0 -- -- 63
2019-05-27 18:00:00 16.1 14 Este 38 Este 0 -- -- 56
2019-05-27 17:00:00 15.5 14 Nordeste 33 Este 0 -- -- 65
2019-05-27 16:00:00 14.6 15 Nordeste 32 Este 0 -- -- 70
2019-05-27 15:00:00 15.5 19 Este 40 Este 0 -- -- 63
2019-05-27 14:00:00 15.9 17 Este 30 Nordeste 0 -- -- 63
2019-05-27 13:00:00 15.8 12 Nordeste 32 Este 0 -- -- 64
2019-05-27 12:00:00 14.9 13 Sudeste 26 Sudeste 0 -- -- 66
2019-05-27 11:00:00 13.3 21 Sudeste 28 Este 0 -- -- 73
2019-05-27 10:00:00 11.2 18 Sudeste 23 Sudeste 0 -- -- 84
2019-05-27 09:00:00 7.9 14 Sudeste 22 Sudeste 0 -- -- 100
2019-05-27 08:00:00 6.5 16 Este 27 Sudeste 0 -- -- 100
2019-05-27 07:00:00 5.9 12 Sudeste 24 Sudeste 0 -- -- 100
2019-05-27 06:00:00 6.1 16 Sudeste 27 Sudeste 0 -- -- 100
2019-05-27 05:00:00 6.1 18 Sudeste 27 Sudeste 0 -- -- 100
2019-05-27 04:00:00 6.2 12 Sudeste 22 Sudeste 0 -- -- 99
2019-05-27 03:00:00 6.6 13 Sudeste 22 Sudeste 0 -- -- 97
2019-05-27 02:00:00 7 13 Este 23 Este 0 -- -- 97
2019-05-27 01:00:00 7.5 11 Este 21 Sudeste 0 -- -- 93
2019-05-27 00:00:00 7.7 8 Sudeste 15 Sudeste 0 -- -- 91